Dades meteomassalio
Diari Summary for Octubre 26, 2017 Units:  Metric    English   Both
« Previous Day
Next Day »
Diari Semanal Mensual Anual Personalitzat
  Maxima: Minima: Mijana:
Temperatura: -17.8 °C -15.6 °C -10.6 °C
Rosada: -17.8 °C -17.2 °C -15.2 °C
Humitat: Humidity % 30 % 61 %
Velocitat del vent: 0 km/h 0 km/h 2.6 km/h
Racha vent: 0 km/h - -
Vent:- - West
Pressio: 0 hPa 34797.9 hPa -
Pluja: 0 mm    
Historical Graphs
 
 
Tabular Data for Octubre 26, 2017
Time Temperature Dew Point Pressure Wind Wind Speed Wind Gust Humidity Rainfall Rate (Hourly) solar Conditions
-17.8 °C -17.8 °C 0 hPa Calm     Humidity % 0 mm SolarRadiationWatts/m^2 W/m2 Conditions
00:01 -12.8 °C -15.3 °C 34808.1 hPa Calm     74 % 0 mm 0.0 W/m2 CLR
00:06 -12.8 °C -15.3 °C 34808.1 hPa Calm     74 % 0 mm 0.0 W/m2 CLR
00:12 -12.8 °C -15.4 °C 34808.1 hPa Calm     73 % 0 mm 0.0 W/m2 CLR
00:17 -13.2 °C -15.7 °C 34808.1 hPa Calm     73 % 0 mm 0.0 W/m2 CLR
00:22 -13.2 °C -15.7 °C 34808.1 hPa Calm     73 % 0 mm 0.0 W/m2 CLR
00:27 -13.2 °C -15.7 °C 34808.1 hPa Calm     73 % 0 mm 0.0 W/m2 CLR
00:32 -13.2 °C -15.6 °C 34808.1 hPa Calm     74 % 0 mm 0.0 W/m2 CLR
00:37 -13.2 °C -15.4 °C 34808.1 hPa Calm     75 % 0 mm 0.0 W/m2 CLR
00:42 -13.2 °C -15.4 °C 34808.1 hPa Calm     75 % 0 mm 0.0 W/m2 CLR
00:47 -13.2 °C -15.4 °C 34808.1 hPa Calm     76 % 0 mm 0.0 W/m2 CLR
00:52 -13.2 °C -15.4 °C 34818.2 hPa Calm     76 % 0 mm 0.0 W/m2 CLR
00:57 -13.2 °C -15.4 °C 34818.2 hPa Calm     76 % 0 mm 0.0 W/m2 CLR
01:02 -13.4 °C -15.6 °C 34818.2 hPa Calm     77 % 0 mm 0.0 W/m2 CLR
01:07 -13.4 °C -15.6 °C 34818.2 hPa Calm     77 % 0 mm 0.0 W/m2 CLR
01:12 -13.4 °C -15.6 °C 34818.2 hPa Calm     77 % 0 mm 0.0 W/m2 CLR
01:17 -13.4 °C -15.4 °C 34818.2 hPa Calm     78 % 0 mm 0.0 W/m2 CLR
01:22 -13.4 °C -15.4 °C 34818.2 hPa Calm     78 % 0 mm 0.0 W/m2 CLR
01:27 -13.4 °C -15.4 °C 34818.2 hPa Calm     78 % 0 mm 0.0 W/m2 CLR
01:32 -13.4 °C -15.4 °C 34818.2 hPa Calm     78 % 0 mm 0.0 W/m2 CLR
01:37 -13.2 °C -15.2 °C 34808.1 hPa Calm     78 % 0 mm 0.0 W/m2 CLR
01:42 -13.2 °C -15.2 °C 34808.1 hPa Calm     78 % 0 mm 0.0 W/m2 CLR
01:47 -12.8 °C -14.8 °C 34808.1 hPa Calm     79 % 0 mm 0.0 W/m2 CLR
01:52 -12.8 °C -14.8 °C 34818.2 hPa Calm     79 % 0 mm 0.0 W/m2 CLR
01:57 -13.2 °C -15.1 °C 34808.1 hPa Calm     79 % 0 mm 0.0 W/m2 CLR
02:02 -13.2 °C -15.1 °C 34808.1 hPa Calm     79 % 0 mm 0.0 W/m2 CLR
02:07 -13.2 °C -14.9 °C 34808.1 hPa Calm     80 % 0 mm 0.0 W/m2 CLR
02:12 -13.4 °C -15.2 °C 34808.1 hPa Calm     80 % 0 mm 0.0 W/m2 CLR
02:17 -13.4 °C -15.2 °C 34808.1 hPa Calm     80 % 0 mm 0.0 W/m2 CLR
02:22 -13.4 °C -15.2 °C 34818.2 hPa Calm     80 % 0 mm 0.0 W/m2 CLR
02:27 -13.8 °C -15.6 °C 34818.2 hPa Calm     80 % 0 mm 0.0 W/m2 CLR
02:32 -13.8 °C -15.6 °C 34818.2 hPa Calm     80 % 0 mm 0.0 W/m2 CLR
02:37 -13.8 °C -15.6 °C 34818.2 hPa Calm     80 % 0 mm 0.0 W/m2 CLR
02:42 -13.4 °C -15.2 °C 34818.2 hPa Calm     81 % 0 mm 0.0 W/m2 CLR
02:47 -13.2 °C -14.8 °C 34808.1 hPa Calm     82 % 0 mm 0.0 W/m2 CLR
02:52 -13.2 °C -14.8 °C 34808.1 hPa Calm     81 % 0 mm 0.0 W/m2 CLR
02:57 -13.4 °C -15.2 °C 34808.1 hPa Calm     81 % 0 mm 0.0 W/m2 CLR
03:02 -13.4 °C -15.2 °C 34808.1 hPa Calm     81 % 0 mm 0.0 W/m2 CLR
03:07 -13.2 °C -14.8 °C 34808.1 hPa Calm     81 % 0 mm 0.0 W/m2 CLR
03:12 -13.2 °C -14.8 °C 34808.1 hPa Calm     82 % 0 mm 0.0 W/m2 CLR
03:17 -13.4 °C -15.1 °C 34808.1 hPa Calm     82 % 0 mm 0.0 W/m2 CLR
03:22 -13.4 °C -15.1 °C 34818.2 hPa Calm     82 % 0 mm 0.0 W/m2 CLR
03:27 -13.4 °C -15.1 °C 34808.1 hPa Calm     82 % 0 mm 0.0 W/m2 CLR
03:32 -13.4 °C -15.1 °C 34808.1 hPa Calm     82 % 0 mm 0.0 W/m2 CLR
03:37 -13.4 °C -15.1 °C 34808.1 hPa Calm     82 % 0 mm 0.0 W/m2 CLR
03:42 -13.8 °C -15.4 °C 34808.1 hPa Calm     82 % 0 mm 0.0 W/m2 CLR
03:47 -13.8 °C -15.3 °C 34808.1 hPa Calm     83 % 0 mm 0.0 W/m2 CLR
03:52 -13.8 °C -15.3 °C 34818.2 hPa Calm     83 % 0 mm 0.0 W/m2 CLR
03:57 -13.8 °C -15.4 °C 34808.1 hPa Calm     82 % 0 mm 0.0 W/m2 CLR
04:02 -13.4 °C -15.1 °C 34808.1 hPa Calm     82 % 0 mm 0.0 W/m2 CLR
04:07 -13.4 °C -14.9 °C 34808.1 hPa Calm     84 % 0 mm 0.0 W/m2 CLR
04:12 -13.8 °C -15.3 °C 34808.1 hPa Calm     83 % 0 mm 0.0 W/m2 CLR
04:17 -13.8 °C -15.2 °C 34808.1 hPa Calm     84 % 0 mm 0.0 W/m2 CLR
04:22 -13.8 °C -15.2 °C 34808.1 hPa Calm     84 % 0 mm 0.0 W/m2 CLR
04:27 -13.8 °C -15.3 °C 34808.1 hPa Calm     83 % 0 mm 0.0 W/m2 CLR
04:32 -13.8 °C -15.4 °C 34808.1 hPa Calm     82 % 0 mm 0.0 W/m2 CLR
04:37 -14.1 °C -15.7 °C 34808.1 hPa Calm     82 % 0 mm 0.0 W/m2 CLR
04:42 -14.1 °C -15.6 °C 34808.1 hPa Calm     83 % 0 mm 0.0 W/m2 CLR
04:47 -14.1 °C -15.4 °C 34808.1 hPa Calm     84 % 0 mm 0.0 W/m2 CLR
04:52 -14.1 °C -15.4 °C 34808.1 hPa Calm     85 % 0 mm 0.0 W/m2 CLR
04:57 -14.1 °C -15.4 °C 34808.1 hPa Calm     85 % 0 mm 0.0 W/m2 CLR
05:02 -14.4 °C -15.9 °C 34808.1 hPa Calm     83 % 0 mm 0.0 W/m2 CLR
05:07 -14.4 °C -15.9 °C 34808.1 hPa Calm     83 % 0 mm 0.0 W/m2 CLR
05:12 -14.4 °C -15.9 °C 34808.1 hPa Calm     83 % 0 mm 0.0 W/m2 CLR
05:17 -14.7 °C -16.2 °C 34808.1 hPa Calm     83 % 0 mm 0.0 W/m2 CLR
05:22 -14.7 °C -16 °C 34808.1 hPa Calm     85 % 0 mm 0.0 W/m2 CLR
05:27 -14.7 °C -16 °C 34818.2 hPa Calm     85 % 0 mm 0.0 W/m2 CLR
05:32 -14.7 °C -16 °C 34818.2 hPa Calm     85 % 0 mm 0.0 W/m2 CLR
05:37 -14.7 °C -16.1 °C 34808.1 hPa Calm     84 % 0 mm 0.0 W/m2 CLR
05:42 -14.7 °C -16.1 °C 34818.2 hPa Calm     84 % 0 mm 0.0 W/m2 CLR
05:47 -14.7 °C -16.1 °C 34818.2 hPa Calm     84 % 0 mm 0.0 W/m2 CLR
05:52 -14.7 °C -16.1 °C 34818.2 hPa Calm     84 % 0 mm 0.0 W/m2 CLR
05:57 -14.7 °C -16.1 °C 34818.2 hPa Calm     84 % 0 mm 0.0 W/m2 CLR
06:02 -14.7 °C -16 °C 34818.2 hPa Calm     85 % 0 mm 0.0 W/m2 CLR
06:07 -15 °C -16.3 °C 34818.2 hPa Calm     85 % 0 mm 0.0 W/m2 CLR
06:12 -15 °C -16.3 °C 34818.2 hPa Calm     85 % 0 mm 0.0 W/m2 CLR
06:17 -15 °C -16.2 °C 34818.2 hPa Calm     86 % 0 mm 0.0 W/m2 CLR
06:22 -15 °C -16.2 °C 34818.2 hPa Calm     86 % 0 mm 0.0 W/m2 CLR
06:27 -15 °C -16.2 °C 34818.2 hPa Calm     86 % 0 mm 0.0 W/m2 CLR
06:32 -15 °C -16.2 °C 34818.2 hPa Calm     86 % 0 mm 0.0 W/m2 CLR
06:37 -15 °C -16.2 °C 34818.2 hPa Calm     86 % 0 mm 0.0 W/m2 CLR
06:42 -15 °C -16.1 °C 34818.2 hPa Calm     87 % 0 mm 0.0 W/m2 CLR
06:47 -15 °C -16.2 °C 34818.2 hPa Calm     86 % 0 mm 0.0 W/m2 CLR
06:52 -15 °C -16.1 °C 34831.8 hPa Calm     87 % 0 mm 0.0 W/m2 CLR
06:57 -15.3 °C -16.4 °C 34831.8 hPa Calm     87 % 0 mm 0.0 W/m2 CLR
07:02 -15.3 °C -16.4 °C 34831.8 hPa Calm     87 % 0 mm 0.0 W/m2 CLR
07:07 -15.3 °C -16.5 °C 34831.8 hPa Calm     86 % 0 mm 0.0 W/m2 CLR
07:12 -15 °C -16.1 °C 34831.8 hPa Calm     87 % 0 mm 0.0 W/m2 CLR
07:17 -15 °C -16.1 °C 34831.8 hPa Calm     87 % 0 mm 0.0 W/m2 CLR
07:23 -15 °C -16.2 °C 34831.8 hPa Calm     86 % 0 mm 0.0 W/m2 CLR
07:27 -15 °C -16.1 °C 34831.8 hPa Calm     87 % 0 mm 0.0 W/m2 CLR
07:33 -15 °C -16.1 °C 34831.8 hPa Calm     87 % 0 mm 0.0 W/m2 CLR
07:38 -15 °C -16.1 °C 34831.8 hPa Calm     87 % 0 mm 0.0 W/m2 CLR
07:43 -15 °C -16.1 °C 34831.8 hPa Calm     87 % 0 mm 0.0 W/m2 CLR
07:48 -15.3 °C -16.5 °C 34831.8 hPa Calm     86 % 0 mm 0.0 W/m2 CLR
07:53 -15.3 °C -16.4 °C 34841.9 hPa Calm     87 % 0 mm 0.0 W/m2 CLR
07:58 -15.3 °C -16.3 °C 34841.9 hPa Calm     88 % 0 mm 0.0 W/m2 CLR
08:03 -15.3 °C -16.3 °C 34831.8 hPa Calm     88 % 0 mm 0.0 W/m2 CLR
08:08 -15.3 °C -16.3 °C 34841.9 hPa Calm     88 % 0 mm 0.0 W/m2 CLR
08:13 -15.3 °C -16.4 °C 34831.8 hPa Calm     87 % 0 mm 0.0 W/m2 CLR
08:18 -15.3 °C -16.3 °C 34841.9 hPa Calm     88 % 0 mm 0.0 W/m2 OVC
08:23 -15.6 °C -16.6 °C 34841.9 hPa Calm     88 % 0 mm 5.0 W/m2 OVC
08:28 -15.3 °C -16.4 °C 34841.9 hPa Calm     87 % 0 mm 7.0 W/m2 OVC
08:33 -15.3 °C -16.4 °C 34841.9 hPa Calm     87 % 0 mm 9.0 W/m2 BKN
08:34 -15.3 °C -16.4 °C 34841.9 hPa Calm     87 % 0 mm 9.0 W/m2 BKN
08:39 -15.3 °C -16.3 °C 34841.9 hPa Calm     88 % 0 mm 12.0 W/m2 BKN
08:44 -15.3 °C -16.3 °C 34841.9 hPa Calm     88 % 0 mm 14.0 W/m2 BKN
08:49 -15.3 °C -16.3 °C 34841.9 hPa Calm     88 % 0 mm 16.0 W/m2 BKN
08:54 -15.3 °C -16.3 °C 34841.9 hPa Calm     88 % 0 mm 23.0 W/m2 BKN
08:59 -15.3 °C -16.3 °C 34852.1 hPa Calm     88 % 0 mm 33.0 W/m2 BKN
09:04 -15 °C -16.1 °C 34841.9 hPa Calm     87 % 0 mm 42.0 W/m2 BKN
09:09 -15 °C -16.2 °C 34841.9 hPa Calm     86 % 0 mm 56.0 W/m2 SCT
09:14 -15 °C -16.2 °C 34852.1 hPa Calm     86 % 0 mm 70.0 W/m2 FEW
09:19 -15 °C -16.3 °C 34852.1 hPa Calm     85 % 0 mm 81.0 W/m2 FEW
09:24 -14.7 °C -16.1 °C 34852.1 hPa Calm     84 % 0 mm 98.0 W/m2 FEW
09:29 -14.7 °C -16.1 °C 34852.1 hPa Calm     84 % 0 mm 116.0 W/m2 CLR
09:34 -14.7 °C -16.2 °C 34852.1 hPa Calm     83 % 0 mm 114.0 W/m2 CLR
09:39 -14.4 °C -15.9 °C 34852.1 hPa Calm     83 % 0 mm 148.0 W/m2 CLR
09:44 -14.1 °C -15.7 °C 34852.1 hPa Calm     82 % 0 mm 162.0 W/m2 CLR
09:49 -14.1 °C -15.9 °C 34852.1 hPa Calm     80 % 0 mm 121.0 W/m2 CLR
09:54 -13.8 °C -15.9 °C 34852.1 hPa Calm     77 % 0 mm 202.0 W/m2 CLR
09:59 -13.8 °C -16.1 °C 34852.1 hPa Calm     75 % 0 mm 206.0 W/m2 CLR
10:04 -13.4 °C -16 °C 34852.1 hPa Calm     73 % 0 mm 232.0 W/m2 CLR
10:09 -13.4 °C -16.1 °C 34852.1 hPa Calm     72 % 0 mm 248.0 W/m2 CLR
10:14 -13.2 °C -16 °C 34865.6 hPa Calm     70 % 0 mm 265.0 W/m2 CLR
10:19 -12.8 °C -15.8 °C 34865.6 hPa Calm     69 % 0 mm 278.0 W/m2 CLR
10:24 -12.6 °C -15.8 °C 34865.6 hPa Calm     67 % 0 mm 290.0 W/m2 CLR
10:29 -12.2 °C -15.6 °C 34865.6 hPa Calm     66 % 0 mm 304.0 W/m2 CLR
10:34 -11.9 °C -15.4 °C 34865.6 hPa Calm     65 % 0 mm 318.0 W/m2 CLR
10:39 -11.6 °C -15.2 °C 34865.6 hPa Calm     64 % 0 mm 329.0 W/m2 CLR
10:44 -11.3 °C -15.1 °C 34852.1 hPa Calm     63 % 0 mm 343.0 W/m2 CLR
10:49 -11 °C -15.1 °C 34852.1 hPa Calm     61 % 0 mm 355.0 W/m2 CLR
10:54 -11 °C -15.2 °C 34852.1 hPa Calm     60 % 0 mm 369.0 W/m2 CLR
10:59 -10.7 °C -15.1 °C 34852.1 hPa Calm     59 % 0 mm 380.0 W/m2 CLR
11:04 -10.4 °C -15 °C 34865.6 hPa Calm     57 % 0 mm 390.0 W/m2 CLR
11:09 -10.1 °C -15.2 °C 34865.6 hPa Calm     54 % 0 mm 401.0 W/m2 CLR
11:14 -10.1 °C -15.2 °C 34852.1 hPa Calm     54 % 0 mm 413.0 W/m2 CLR
11:19 -9.8 °C -15.2 °C 34852.1 hPa Calm     52 % 0 mm 425.0 W/m2 CLR
11:24 -9.8 °C -15.4 °C 34852.1 hPa Calm     50 % 0 mm 436.0 W/m2 CLR
11:29 -9.4 °C -15.3 °C 34852.1 hPa Calm     49 % 0 mm 446.0 W/m2 CLR
11:34 -8.8 °C -14.8 °C 34852.1 hPa Calm     49 % 0 mm 455.0 W/m2 CLR
11:39 -8.5 °C -14.5 °C 34852.1 hPa Calm     49 % 0 mm 468.0 W/m2 CLR
11:44 -8.5 °C -14.7 °C 34852.1 hPa Calm     48 % 0 mm 475.0 W/m2 CLR
11:49 -8.2 °C -14.4 °C 34852.1 hPa Calm     48 % 0 mm 482.0 W/m2 CLR
11:54 -7.6 °C -13.8 °C 34852.1 hPa Calm     48 % 0 mm 492.0 W/m2 CLR
11:59 -7.3 °C -13.9 °C 34852.1 hPa Calm     46 % 0 mm 503.0 W/m2 CLR
12:04 -7 °C -13.6 °C 34852.1 hPa Calm     46 % 0 mm 510.0 W/m2 CLR
12:09 -7 °C -13.6 °C 34852.1 hPa Calm     46 % 0 mm 517.0 W/m2 CLR
12:14 -6.7 °C -13.5 °C 34852.1 hPa Calm     45 % 0 mm 526.0 W/m2 CLR
12:19 -6.3 °C -13.2 °C 34852.1 hPa Calm     45 % 0 mm 531.0 W/m2 CLR
12:24 -6.3 °C -13.2 °C 34852.1 hPa North 10.3 km/h 10.3 km/h 45 % 0 mm 538.0 W/m2 CLR
12:29 -6.1 °C -12.9 °C 34852.1 hPa North 10.3 km/h 10.3 km/h 45 % 0 mm 541.0 W/m2 CLR
12:34 -6.1 °C -12.7 °C 34852.1 hPa NNW 10.3 km/h 10.3 km/h 46 % 0 mm 548.0 W/m2 CLR
12:39 -5.7 °C -12.4 °C 34852.1 hPa NW 11.9 km/h 11.9 km/h 46 % 0 mm 554.0 W/m2 CLR
12:44 -5.7 °C -12.4 °C 34852.1 hPa NW 15 km/h 15 km/h 46 % 0 mm 557.0 W/m2 CLR
12:49 -5.7 °C -12.7 °C 34852.1 hPa North 20.9 km/h 20.9 km/h 45 % 0 mm 564.0 W/m2 CLR
12:54 -5.4 °C -12 °C 34852.1 hPa North 15 km/h 15 km/h 47 % 0 mm 568.0 W/m2 CLR
12:59 -5.4 °C -12.2 °C 34841.9 hPa North 9 km/h 9.7 km/h 46 % 0 mm 571.0 W/m2 CLR
13:04 -5.4 °C -12.4 °C 34852.1 hPa NNW 20.9 km/h 20.9 km/h 45 % 0 mm 575.0 W/m2 CLR
13:09 -5.1 °C -11.9 °C 34841.9 hPa NW 15 km/h 15 km/h 46 % 0 mm 577.0 W/m2 CLR
13:14 -5.1 °C -12.3 °C 34841.9 hPa NNW 11.9 km/h 11.9 km/h 44 % 0 mm 580.0 W/m2 CLR
13:19 -5.1 °C -12.3 °C 34841.9 hPa NNW 9 km/h   44 % 0 mm 584.0 W/m2 CLR
13:24 -5.1 °C -12.4 °C 34841.9 hPa NNE 11.9 km/h 11.9 km/h 43 % 0 mm 585.0 W/m2 CLR
13:29 -5.1 °C -12.7 °C 34841.9 hPa NNW 15.6 km/h 15.6 km/h 42 % 0 mm 587.0 W/m2 CLR
13:34 -4.8 °C -12.6 °C 34831.8 hPa WNW 23.8 km/h 23.8 km/h 41 % 0 mm 589.0 W/m2 CLR
13:39 -4.8 °C -12.6 °C 34831.8 hPa West 3.1 km/h 6.4 km/h 41 % 0 mm 589.0 W/m2 CLR
13:44 -4.5 °C -12.6 °C 34831.8 hPa West 6 km/h 6 km/h 40 % 0 mm 589.0 W/m2 CLR
13:50 -4.5 °C -12.7 °C 34831.8 hPa Calm   0.8 km/h 39 % 0 mm 587.0 W/m2 CLR
13:55 -4.2 °C -12.4 °C 34831.8 hPa SSW 3.1 km/h   39 % 0 mm 587.0 W/m2 CLR
14:00 -4.5 °C -12.7 °C 34831.8 hPa WNW 9 km/h   39 % 0 mm 587.0 W/m2 CLR
14:05 -4.2 °C -12.4 °C 34831.8 hPa Calm     39 % 0 mm 585.0 W/m2 CLR
14:10 -4.2 °C -12.4 °C 34831.8 hPa WSW 9 km/h   39 % 0 mm 584.0 W/m2 CLR
14:15 -4.2 °C -12.7 °C 34831.8 hPa SW 6 km/h   38 % 0 mm 580.0 W/m2 CLR
14:20 -4.2 °C -12.7 °C 34818.2 hPa Calm     38 % 0 mm 578.0 W/m2 CLR
14:25 -4.2 °C -12.9 °C 34818.2 hPa Calm     37 % 0 mm 577.0 W/m2 CLR
14:30 -4.2 °C -13.1 °C 34818.2 hPa Calm     36 % 0 mm 575.0 W/m2 CLR
14:35 -3.9 °C -12.8 °C 34818.2 hPa WNW 2.6 km/h 2.6 km/h 36 % 0 mm 571.0 W/m2 CLR
14:40 -3.9 °C -12.8 °C 34818.2 hPa NW 12.9 km/h 12.9 km/h 36 % 0 mm 564.0 W/m2 CLR
14:45 -3.9 °C -12.8 °C 34808.1 hPa WNW 6 km/h   36 % 0 mm 561.0 W/m2 CLR
14:50 -3.9 °C -12.8 °C 34808.1 hPa NNW 9 km/h 9 km/h 36 % 0 mm 557.0 W/m2 CLR
14:55 -3.6 °C -12.6 °C 34808.1 hPa NW 12.9 km/h 13.2 km/h 36 % 0 mm 552.0 W/m2 CLR
15:00 -3.6 °C -12.6 °C 34808.1 hPa WNW 20.9 km/h 20.9 km/h 36 % 0 mm 545.0 W/m2 CLR
15:05 -3.6 °C -12.3 °C 34808.1 hPa WNW 11.9 km/h 11.9 km/h 37 % 0 mm 540.0 W/m2 CLR
15:10 -3.6 °C -12.3 °C 34808.1 hPa NW 17.9 km/h 17.9 km/h 37 % 0 mm 533.0 W/m2 CLR
15:15 -3.6 °C -12.6 °C 34797.9 hPa NW 9 km/h 9 km/h 36 % 0 mm 527.0 W/m2 CLR
15:20 -3.3 °C -12.6 °C 34797.9 hPa WNW 11.9 km/h 11.9 km/h 35 % 0 mm 519.0 W/m2 CLR
15:25 -3.3 °C -12.6 °C 34797.9 hPa WNW 3.1 km/h   35 % 0 mm 513.0 W/m2 CLR
15:30 -3.3 °C -13 °C 34797.9 hPa NW 9 km/h 9 km/h 33 % 0 mm 504.0 W/m2 CLR
15:35 -3.3 °C -12.8 °C 34797.9 hPa NNW 15.6 km/h 15.6 km/h 34 % 0 mm 497.0 W/m2 CLR
15:40 -2.9 °C -12.7 °C 34797.9 hPa NNW 11.9 km/h   33 % 0 mm 490.0 W/m2 CLR
15:45 -2.9 °C -12.5 °C 34797.9 hPa NW 6 km/h 6 km/h 34 % 0 mm 480.0 W/m2 CLR
15:50 -2.9 °C -12.5 °C 34797.9 hPa Calm     34 % 0 mm 471.0 W/m2 CLR
15:55 -3.3 °C -12.8 °C 34797.9 hPa WNW 3.1 km/h 3.1 km/h 34 % 0 mm 462.0 W/m2 CLR
16:00 -3.3 °C -12.6 °C 34797.9 hPa North 9 km/h 9 km/h 35 % 0 mm 452.0 W/m2 CLR
16:05 -3.3 °C -12.3 °C 34797.9 hPa Calm     36 % 0 mm 439.0 W/m2 CLR
16:10 -3.3 °C -12.3 °C 34797.9 hPa NW 5.1 km/h 5.1 km/h 36 % 0 mm 427.0 W/m2 CLR
16:15 -3.3 °C -12.3 °C 34797.9 hPa NNW 11.9 km/h 11.9 km/h 36 % 0 mm 418.0 W/m2 CLR
16:20 -3.3 °C -12.1 °C 34797.9 hPa NW 3.1 km/h 3.1 km/h 37 % 0 mm 404.0 W/m2 CLR
16:25 -3.3 °C -12.1 °C 34797.9 hPa NW 3.1 km/h 3.1 km/h 37 % 0 mm 394.0 W/m2 CLR
16:30 -3.3 °C -12.6 °C 34797.9 hPa NW 7.7 km/h 7.7 km/h 35 % 0 mm 383.0 W/m2 CLR
16:35 -3.3 °C -12.8 °C 34797.9 hPa West 18.2 km/h 18.2 km/h 34 % 0 mm 373.0 W/m2 CLR
16:40 -3.6 °C -13.3 °C 34797.9 hPa West 9 km/h 9 km/h 33 % 0 mm 362.0 W/m2 CLR
16:45 -3.6 °C -13.6 °C 34797.9 hPa West 9 km/h 9 km/h 32 % 0 mm 348.0 W/m2 CLR
16:46 -3.6 °C -13.3 °C 34797.9 hPa West 10.3 km/h 10.3 km/h 33 % 0 mm 348.0 W/m2 CLR
16:51 -3.3 °C -13.3 °C 34797.9 hPa Calm     32 % 0 mm 334.0 W/m2 CLR
16:56 -3.3 °C -13.3 °C 34797.9 hPa West 9 km/h 9 km/h 32 % 0 mm 320.0 W/m2 CLR
17:01 -2.9 °C -13.3 °C 34797.9 hPa West 15 km/h 15 km/h 31 % 0 mm 308.0 W/m2 CLR
17:06 -3.3 °C -13.5 °C 34797.9 hPa WNW 6 km/h 6 km/h 31 % 0 mm 295.0 W/m2 CLR
17:11 -3.3 °C -13.5 °C 34797.9 hPa West 6 km/h   31 % 0 mm 283.0 W/m2 CLR
17:16 -3.3 °C -13.5 °C 34797.9 hPa WNW 9 km/h 9 km/h 31 % 0 mm 265.0 W/m2 CLR
17:21 -3.6 °C -13.8 °C 34797.9 hPa WNW 6 km/h 6 km/h 31 % 0 mm 251.0 W/m2 CLR
17:26 -3.6 °C -13.6 °C 34797.9 hPa WNW 15.6 km/h 15.6 km/h 32 % 0 mm 234.0 W/m2 CLR
17:31 -3.6 °C -13.6 °C 34797.9 hPa West 3.1 km/h   32 % 0 mm 218.0 W/m2 CLR
17:36 -3.9 °C -14.1 °C 34797.9 hPa WNW 9 km/h 9 km/h 31 % 0 mm 202.0 W/m2 CLR
17:41 -3.9 °C -14.1 °C 34797.9 hPa WNW 9 km/h 9 km/h 31 % 0 mm 183.0 W/m2 CLR
17:46 -4.2 °C -14.6 °C 34797.9 hPa WNW 9 km/h 9 km/h 30 % 0 mm 165.0 W/m2 CLR
17:51 -4.5 °C -14.6 °C 34797.9 hPa West 6 km/h 6 km/h 31 % 0 mm 149.0 W/m2 CLR
17:56 -4.8 °C -14.9 °C 34797.9 hPa Calm     31 % 0 mm 134.0 W/m2 CLR
18:01 -5.1 °C -15.1 °C 34797.9 hPa Calm     31 % 0 mm 113.0 W/m2 CLR
18:06 -5.4 °C -15.4 °C 34797.9 hPa Calm     31 % 0 mm 98.0 W/m2 CLR
18:11 -6.1 °C -15.7 °C 34797.9 hPa Calm     32 % 0 mm 84.0 W/m2 FEW
18:16 -6.3 °C -15.9 °C 34797.9 hPa Calm     32 % 0 mm 72.0 W/m2 FEW
18:21 -6.7 °C -16.2 °C 34797.9 hPa Calm     32 % 0 mm 54.0 W/m2 SCT
18:26 -7 °C -16.3 °C 34808.1 hPa Calm     33 % 0 mm 40.0 W/m2 BKN
18:31 -7.3 °C -16.5 °C 34808.1 hPa Calm     33 % 0 mm 30.0 W/m2 BKN
18:36 -7.6 °C -16.8 °C 34808.1 hPa Calm     33 % 0 mm 23.0 W/m2 BKN
18:41 -7.9 °C -16.8 °C 34808.1 hPa Calm     34 % 0 mm 14.0 W/m2 BKN
18:46 -8.2 °C -17.1 °C 34808.1 hPa WNW 3.1 km/h   34 % 0 mm 12.0 W/m2 BKN
18:51 -8.5 °C -17.2 °C 34808.1 hPa Calm     35 % 0 mm 11.0 W/m2 BKN
18:56 -8.5 °C -17.2 °C 34808.1 hPa Calm     35 % 0 mm 7.0 W/m2 BKN
19:01 -8.8 °C -17.2 °C 34808.1 hPa Calm     36 % 0 mm 5.0 W/m2 OVC
19:06 -8.8 °C -17 °C 34808.1 hPa Calm     37 % 0 mm 0.0 W/m2 OVC
19:11 -8.8 °C -16.8 °C 34818.2 hPa Calm     38 % 0 mm 0.0 W/m2 OVC
19:16 -8.5 °C -16.3 °C 34818.2 hPa Calm     39 % 0 mm 0.0 W/m2 CLR
19:21 -8.8 °C -16.4 °C 34818.2 hPa Calm     40 % 0 mm 0.0 W/m2 CLR
19:26 -8.8 °C -16.2 °C 34818.2 hPa Calm     41 % 0 mm 0.0 W/m2 CLR
19:31 -8.5 °C -15.6 °C 34818.2 hPa Calm     43 % 0 mm 0.0 W/m2 CLR
19:36 -8.5 °C -15.6 °C 34818.2 hPa Calm     43 % 0 mm 0.0 W/m2 CLR
19:37 -8.5 °C -15.6 °C 34831.8 hPa Calm     43 % 0 mm 0.0 W/m2 CLR
19:42 -8.8 °C -15.4 °C 34831.8 hPa Calm     45 % 0 mm 0.0 W/m2 CLR
19:47 -9.1 °C -15.6 °C 34831.8 hPa Calm     46 % 0 mm 0.0 W/m2 CLR
19:52 -9.4 °C -15.7 °C 34831.8 hPa Calm     47 % 0 mm 0.0 W/m2 CLR
19:57 -9.4 °C -15.3 °C 34841.9 hPa Calm     49 % 0 mm 0.0 W/m2 CLR
19:58 -9.4 °C -15.3 °C 34841.9 hPa Calm     49 % 0 mm 0.0 W/m2 CLR
20:03 -9.1 °C -14.9 °C 34841.9 hPa Calm     50 % 0 mm 0.0 W/m2 CLR
20:08 -9.4 °C -15.2 °C 34841.9 hPa Calm     50 % 0 mm 0.0 W/m2 CLR
20:13 -9.8 °C -15.3 °C 34841.9 hPa Calm     51 % 0 mm 0.0 W/m2 CLR
20:18 -10.1 °C -15.6 °C 34841.9 hPa Calm     51 % 0 mm 0.0 W/m2 CLR
20:23 -10.4 °C -15.7 °C 34852.1 hPa Calm     52 % 0 mm 0.0 W/m2 CLR
20:28 -10.7 °C -16 °C 34852.1 hPa Calm     52 % 0 mm 0.0 W/m2 CLR
20:33 -11 °C -16.3 °C 34852.1 hPa Calm     52 % 0 mm 0.0 W/m2 CLR
20:38 -11 °C -16.2 °C 34852.1 hPa Calm     53 % 0 mm 0.0 W/m2 CLR
20:43 -11.3 °C -16.4 °C 34852.1 hPa Calm     53 % 0 mm 0.0 W/m2 CLR
20:48 -11.6 °C -16.6 °C 34865.6 hPa Calm     54 % 0 mm 0.0 W/m2 CLR
20:53 -11.6 °C -16.4 °C 34865.6 hPa Calm     55 % 0 mm 0.0 W/m2 CLR
20:58 -11.9 °C -16.7 °C 34865.6 hPa SE 11.9 km/h 11.9 km/h 55 % 0 mm 0.0 W/m2 CLR
21:03 -11.9 °C -16.6 °C 34865.6 hPa Calm     56 % 0 mm 0.0 W/m2 CLR
21:08 -12.2 °C -16.9 °C 34865.6 hPa SE 9 km/h 9 km/h 56 % 0 mm 0.0 W/m2 CLR
21:13 -12.2 °C -16.7 °C 34865.6 hPa SE 9 km/h 9 km/h 57 % 0 mm 0.0 W/m2 CLR
21:18 -12.2 °C -16.7 °C 34865.6 hPa SSE 11.9 km/h 11.9 km/h 57 % 0 mm 0.0 W/m2 CLR
21:23 -12.6 °C -17.1 °C 34865.6 hPa Calm     57 % 0 mm 0.0 W/m2 CLR
21:28 -12.6 °C -17.1 °C 34865.6 hPa SE 6 km/h 6 km/h 57 % 0 mm 0.0 W/m2 CLR
21:33 -12.6 °C -16.9 °C 34865.6 hPa ESE 6 km/h 6 km/h 58 % 0 mm 0.0 W/m2 CLR
21:38 -12.6 °C -16.9 °C 34865.6 hPa SE 9 km/h 9 km/h 58 % 0 mm 0.0 W/m2 CLR
21:43 -12.6 °C -16.8 °C 34865.6 hPa SE 6 km/h   59 % 0 mm 0.0 W/m2 CLR
21:48 -12.8 °C -17.1 °C 34865.6 hPa Calm     59 % 0 mm 0.0 W/m2 CLR
21:53 -12.8 °C -17.1 °C 34865.6 hPa SE 9 km/h 9 km/h 59 % 0 mm 0.0 W/m2 CLR
21:58 -12.8 °C -16.9 °C 34875.8 hPa SSE 9 km/h 9 km/h 60 % 0 mm 0.0 W/m2 CLR
22:03 -12.8 °C -16.9 °C 34875.8 hPa SE 11.9 km/h 11.9 km/h 60 % 0 mm 0.0 W/m2 CLR
22:08 -12.8 °C -16.9 °C 34875.8 hPa SSE 6 km/h   60 % 0 mm 0.0 W/m2 CLR
22:13 -13.2 °C -17.2 °C 34875.8 hPa SSE 11.9 km/h 11.9 km/h 60 % 0 mm 0.0 W/m2 CLR
22:18 -13.2 °C -17.1 °C 34875.8 hPa SE 9 km/h 9 km/h 61 % 0 mm 0.0 W/m2 CLR
22:23 -13.2 °C -17.1 °C 34875.8 hPa Calm     61 % 0 mm 0.0 W/m2 CLR
22:28 -13.2 °C -17.1 °C 34875.8 hPa Calm     61 % 0 mm 0.0 W/m2 CLR
22:33 -13.2 °C -17 °C 34875.8 hPa Calm     62 % 0 mm 0.0 W/m2 CLR
22:38 -13.2 °C -17 °C 34875.8 hPa Calm     62 % 0 mm 0.0 W/m2 CLR
22:43 -13.2 °C -16.7 °C 34875.8 hPa SSE 15 km/h 15 km/h 64 % 0 mm 0.0 W/m2 CLR
22:48 -13.2 °C -16.6 °C 34889.3 hPa SSE 12.9 km/h 12.9 km/h 65 % 0 mm 0.0 W/m2 CLR
22:53 -13.2 °C -16.7 °C 34889.3 hPa Calm     64 % 0 mm 0.0 W/m2 CLR
22:58 -13.2 °C -17 °C 34889.3 hPa Calm     62 % 0 mm 0.0 W/m2 CLR
23:03 -13.2 °C -16.8 °C 34889.3 hPa Calm     63 % 0 mm 0.0 W/m2 CLR
23:08 -13.2 °C -16.8 °C 34889.3 hPa Calm     63 % 0 mm 0.0 W/m2 CLR
23:13 -13.2 °C -16.8 °C 34889.3 hPa Calm     63 % 0 mm 0.0 W/m2 CLR
23:18 -13.4 °C -17 °C 34889.3 hPa Calm     64 % 0 mm 0.0 W/m2 CLR
23:23 -13.4 °C -17 °C 34899.5 hPa Calm     64 % 0 mm 0.0 W/m2 CLR
23:28 -13.4 °C -16.8 °C 34899.5 hPa Calm     66 % 0 mm 0.0 W/m2 CLR
23:33 -13.4 °C -16.6 °C 34899.5 hPa Calm     68 % 0 mm 0.0 W/m2 CLR
23:38 -13.4 °C -16.6 °C 34899.5 hPa Calm     67 % 0 mm 0.0 W/m2 CLR
23:43 -13.2 °C -16.2 °C 34899.5 hPa Calm     68 % 0 mm 0.0 W/m2 CLR
23:48 -12.8 °C -15.8 °C 34899.5 hPa Calm     69 % 0 mm 0.0 W/m2 CLR
23:53 -12.8 °C -15.8 °C 34899.5 hPa Calm     69 % 0 mm 0.0 W/m2 CLR
23:58 -12.8 °C -15.7 °C 34899.5 hPa Calm     70 % 0 mm 0.0 W/m2 CLR
Lo Temps de Massalio
Compliments of Weather Underground - 1.25 mb